Time;durP1;ratioP1;P1;durP2;ratioP2;P2;SDS_P1;SDS_P2;PMS_P1;PMS_P2;Temp;Humidity;BMP_temperature;BMP_pressure;BME280_temperature;BME280_humidity;BME280_pressure;Samples;Min_cycle;Max_cycle;Signal;HPM_P1;HPM_P2
2024/03/17 00:00:45;;;;;;;2.00;0.50;;;;;;;5.34;84.07;101659.94;5077239;28;20625;-67
2024/03/17 00:03:12;;;;;;;1.60;0.40;;;;;;;5.37;83.98;101652.22;5076783;28;20500;-67
2024/03/17 00:05:39;;;;;;;3.43;0.70;;;;;;;5.36;83.87;101652.44;5077113;28;20203;-67
2024/03/17 00:08:06;;;;;;;2.27;0.73;;;;;;;5.35;84.02;101651.63;5076691;28;20471;-67
2024/03/17 00:10:32;;;;;;;2.20;0.50;;;;;;;5.35;84.13;101656.19;5076989;28;20441;-67
2024/03/17 00:12:58;;;;;;;2.50;1.47;;;;;;;5.32;83.94;101657.50;5076557;28;20572;-67
2024/03/17 00:15:24;;;;;;;1.53;0.30;;;;;;;5.31;84.06;101650.47;5076827;28;20234;-67
2024/03/17 00:17:50;;;;;;;1.50;0.30;;;;;;;5.30;84.20;101655.03;5076842;28;20827;-68
2024/03/17 00:20:19;;;;;;;1.60;0.40;;;;;;;5.29;84.31;101657.97;5076508;28;20738;-67
2024/03/17 00:22:48;;;;;;;2.27;0.70;;;;;;;5.34;83.28;101654.56;5076371;28;20998;-67
2024/03/17 00:25:14;;;;;;;1.50;0.40;;;;;;;5.36;83.49;101652.44;5076517;28;20472;-67
2024/03/17 00:27:43;;;;;;;2.73;0.40;;;;;;;5.38;83.32;101656.53;5076684;28;20476;-67
2024/03/17 00:30:12;;;;;;;2.30;0.60;;;;;;;5.35;84.10;101662.38;5076311;28;20207;-67
2024/03/17 00:32:39;;;;;;;1.60;0.40;;;;;;;5.36;84.22;101663.19;5076189;28;20804;-67
2024/03/17 00:35:06;;;;;;;30.00;0.80;;;;;;;5.32;84.30;101666.38;5076117;28;20988;-68
2024/03/17 00:37:33;;;;;;;1.70;0.50;;;;;;;5.28;83.94;101673.28;5076117;28;20448;-68
2024/03/17 00:40:01;;;;;;;2.50;0.47;;;;;;;5.25;84.47;101678.31;5076294;28;20449;-67
2024/03/17 00:42:27;;;;;;;1.57;0.37;;;;;;;5.19;85.08;101680.06;5076313;28;20500;-67
2024/03/17 00:44:53;;;;;;;1.57;0.30;;;;;;;5.19;84.83;101674.69;5076435;28;20457;-67
2024/03/17 00:47:20;;;;;;;2.10;0.63;;;;;;;5.18;85.00;101675.75;5076321;28;20521;-67
2024/03/17 00:49:45;;;;;;;1.67;0.40;;;;;;;5.19;85.07;101682.75;5075980;28;20294;-67
2024/03/17 00:52:12;;;;;;;1.57;0.30;;;;;;;5.16;85.79;101680.53;5075808;28;20551;-67
2024/03/17 00:54:37;;;;;;;1.60;0.37;;;;;;;5.18;85.13;101675.75;5075854;28;20698;-67
2024/03/17 00:57:06;;;;;;;1.70;0.50;;;;;;;5.15;85.45;101673.53;5076120;28;20536;-67
2024/03/17 00:59:31;;;;;;;6.53;0.67;;;;;;;5.11;86.55;101669.69;5076053;28;20290;-66
2024/03/17 01:01:58;;;;;;;1.57;0.30;;;;;;;5.20;86.00;101681.69;5075965;28;20528;-66
2024/03/17 01:04:23;;;;;;;2.47;0.60;;;;;;;5.16;85.26;101683.22;5075996;28;20199;-67
2024/03/17 01:06:50;;;;;;;1.90;0.93;;;;;;;5.14;85.40;101685.34;5076000;28;20528;-67
2024/03/17 01:09:16;;;;;;;1.70;0.57;;;;;;;5.13;86.00;101681.00;5074227;28;20239;-67
2024/03/17 01:11:43;;;;;;;1.80;0.60;;;;;;;5.10;85.42;101684.19;5075577;28;20480;-67
2024/03/17 01:14:10;;;;;;;1.53;0.30;;;;;;;5.06;86.09;101685.72;5075590;28;20223;-67
2024/03/17 01:16:37;;;;;;;1.93;0.47;;;;;;;5.03;87.17;101680.81;5075854;28;20525;-67
2024/03/17 01:19:02;;;;;;;1.60;0.30;;;;;;;5.06;87.08;101680.34;5075703;28;20441;-67
2024/03/17 01:21:29;;;;;;;1.57;0.37;;;;;;;5.00;87.65;101682.13;5075759;28;20446;-67
2024/03/17 01:23:55;;;;;;;1.90;0.50;;;;;;;4.96;88.42;101699.75;5075238;28;20310;-67
2024/03/17 01:26:21;;;;;;;2.53;0.70;;;;;;;5.03;88.11;101680.81;5090288;22;20593;-68
2024/03/17 01:28:47;;;;;;;1.60;0.30;;;;;;;5.01;87.76;101681.06;5075620;28;20286;-68
2024/03/17 01:31:15;;;;;;;15.10;1.13;;;;;;;5.01;88.24;101685.59;5075469;28;20525;-68
2024/03/17 01:33:40;;;;;;;1.80;0.53;;;;;;;5.05;87.14;101684.09;5075327;28;20310;-67
2024/03/17 01:36:07;;;;;;;2.47;0.50;;;;;;;5.00;87.20;101683.94;5075358;28;20572;-68
2024/03/17 01:38:33;;;;;;;1.53;0.30;;;;;;;4.94;87.37;101679.53;5075444;28;20210;-68
2024/03/17 01:41:00;;;;;;;1.60;0.40;;;;;;;4.91;87.19;101688.88;5075061;28;20819;-68
2024/03/17 01:43:27;;;;;;;6.03;0.60;;;;;;;4.88;88.51;101683.19;5075186;28;20464;-68
2024/03/17 01:45:53;;;;;;;1.60;0.40;;;;;;;4.84;88.75;101673.97;5075176;28;20792;-68
2024/03/17 01:48:21;;;;;;;2.83;0.77;;;;;;;4.85;88.65;101673.72;5075204;28;20449;-68
2024/03/17 01:50:51;;;;;;;3.67;0.90;;;;;;;4.83;88.71;101683.06;5075092;28;20851;-68
2024/03/17 01:53:18;;;;;;;1.60;0.30;;;;;;;4.73;89.04;101675.59;5074989;28;20450;-68
2024/03/17 01:55:45;;;;;;;1.60;0.40;;;;;;;4.69;88.65;101674.44;5074929;28;20477;-68
2024/03/17 01:58:12;;;;;;;1.70;0.50;;;;;;;4.63;89.10;101678.06;5074610;28;20445;-68
2024/03/17 02:00:40;;;;;;;1.60;0.30;;;;;;;4.58;90.59;101678.75;5074549;28;20839;-68
2024/03/17 02:03:08;;;;;;;2.17;0.60;;;;;;;4.57;91.02;101681.69;5074716;28;20514;-68
2024/03/17 02:05:37;;;;;;;1.60;0.37;;;;;;;4.55;91.04;101684.59;5074879;28;20440;-67
2024/03/17 02:08:04;;;;;;;5.30;0.70;;;;;;;4.53;91.48;101682.16;5074739;28;20446;-67
2024/03/17 02:10:30;;;;;;;1.57;0.37;;;;;;;4.54;90.62;101685.63;5074685;28;20433;-67
2024/03/17 02:12:58;;;;;;;1.60;0.30;;;;;;;4.51;90.53;101683.41;5074574;28;20461;-67
2024/03/17 02:15:23;;;;;;;5.30;2.40;;;;;;;4.47;91.63;101687.63;5074333;28;20786;-67
2024/03/17 02:17:50;;;;;;;1.60;0.30;;;;;;;4.46;90.90;101688.66;5074556;28;20524;-67
2024/03/17 02:20:15;;;;;;;1.70;0.50;;;;;;;4.42;90.70;101685.63;5073757;28;20246;-68
2024/03/17 02:22:43;;;;;;;8.47;1.20;;;;;;;4.39;90.39;101690.66;5074403;28;20489;-67
2024/03/17 02:25:10;;;;;;;2.00;0.50;;;;;;;4.35;91.27;101686.81;5074436;28;20658;-68
2024/03/17 02:27:36;;;;;;;16.73;1.27;;;;;;;4.30;91.47;101677.59;5074335;28;20530;-68
2024/03/17 02:30:04;;;;;;;1.60;0.30;;;;;;;4.35;91.07;101676.91;5074103;28;20882;-67
2024/03/17 02:32:30;;;;;;;2.40;0.90;;;;;;;4.40;90.53;101687.75;5073979;28;21034;-67
2024/03/17 02:34:57;;;;;;;1.70;0.47;;;;;;;4.32;90.39;101687.25;5074255;28;20481;-67
2024/03/17 02:37:22;;;;;;;3.83;1.33;;;;;;;4.23;90.81;101692.16;5074296;28;20253;-68
2024/03/17 02:39:50;;;;;;;1.97;0.50;;;;;;;4.22;90.48;101683.28;5074513;28;20453;-68
2024/03/17 02:42:17;;;;;;;1.60;0.40;;;;;;;4.18;90.75;101687.47;5074012;28;20250;-68
2024/03/17 02:44:43;;;;;;;1.53;0.30;;;;;;;4.13;90.83;101687.38;5074020;28;20472;-68
2024/03/17 02:47:10;;;;;;;1.90;0.53;;;;;;;4.06;91.31;101689.31;5074011;28;20809;-68
2024/03/17 02:49:39;;;;;;;2.13;0.70;;;;;;;4.05;91.84;101679.66;5073675;28;21006;-68
2024/03/17 02:52:07;;;;;;;1.60;0.40;;;;;;;4.00;91.50;101677.66;5073851;28;20437;-69
2024/03/17 02:54:35;;;;;;;1.60;0.30;;;;;;;4.04;91.84;101688.75;5073817;28;20524;-68
2024/03/17 02:57:03;;;;;;;1.60;0.30;;;;;;;3.96;91.62;101686.41;5073853;28;20476;-68
2024/03/17 02:59:29;;;;;;;1.60;0.40;;;;;;;3.94;92.28;101689.31;5073805;28;20536;-67
2024/03/17 03:01:56;;;;;;;1.60;0.30;;;;;;;3.89;92.79;101685.66;5073730;28;20532;-67
2024/03/17 03:04:23;;;;;;;1.60;0.40;;;;;;;3.86;92.86;101686.16;5073788;28;20868;-67
2024/03/17 03:06:49;;;;;;;1.70;0.47;;;;;;;3.86;93.83;101678.91;5073766;28;20447;-67
2024/03/17 03:09:21;;;;;;;1.60;0.40;;;;;;;3.88;94.18;101695.56;5073730;28;20528;-67
2024/03/17 03:11:48;;;;;;;1.60;0.30;;;;;;;3.89;93.58;101681.13;5073620;28;20430;-67
2024/03/17 03:14:16;;;;;;;1.60;0.40;;;;;;;3.86;93.61;101680.78;5073314;28;20811;-67
2024/03/17 03:16:42;;;;;;;2.00;0.60;;;;;;;3.84;94.11;101680.19;5073937;28;20524;-68
2024/03/17 03:19:10;;;;;;;1.60;0.40;;;;;;;3.81;94.30;101686.84;5073265;28;20933;-68
2024/03/17 03:21:36;;;;;;;1.67;0.37;;;;;;;3.83;94.46;101686.59;5073519;28;20438;-68
2024/03/17 03:24:03;;;;;;;1.60;0.30;;;;;;;3.78;94.57;101682.72;5073405;28;20453;-68
2024/03/17 03:26:30;;;;;;;1.60;0.30;;;;;;;3.75;94.66;101685.03;5073183;28;20536;-67
2024/03/17 03:28:56;;;;;;;1.70;0.40;;;;;;;3.72;95.12;101698.91;5073155;28;20941;-67
2024/03/17 03:31:24;;;;;;;1.60;0.30;;;;;;;3.70;95.20;101693.78;5073044;28;20437;-67
2024/03/17 03:33:51;;;;;;;1.70;0.40;;;;;;;3.70;95.59;101693.78;5073484;28;20468;-68
2024/03/17 03:36:17;;;;;;;2.00;0.53;;;;;;;3.70;95.58;101688.41;5073398;28;20512;-67
2024/03/17 03:38:44;;;;;;;1.60;0.30;;;;;;;3.66;95.74;101699.81;5073336;28;20437;-67
2024/03/17 03:41:12;;;;;;;1.60;0.30;;;;;;;3.65;96.33;101693.63;5073379;28;20568;-67
2024/03/17 03:43:38;;;;;;;1.70;0.40;;;;;;;3.70;96.26;101696.44;5073190;28;20502;-68
2024/03/17 03:46:05;;;;;;;1.60;0.30;;;;;;;3.69;97.19;101692.13;5072995;28;20815;-68
2024/03/17 03:48:34;;;;;;;3.17;1.00;;;;;;;3.67;96.85;101694.22;5073247;28;20512;-67
2024/03/17 03:51:04;;;;;;;1.90;0.40;;;;;;;3.68;96.28;101693.19;5072911;28;20434;-67
2024/03/17 03:53:31;;;;;;;1.60;0.40;;;;;;;3.67;96.75;101706.78;5072836;28;20457;-67
2024/03/17 03:55:58;;;;;;;1.60;0.30;;;;;;;3.63;96.17;101701.09;5073462;28;20571;-68
2024/03/17 03:58:25;;;;;;;1.60;0.40;;;;;;;3.61;97.43;101702.34;5072842;28;20926;-67
2024/03/17 04:00:51;;;;;;;1.90;0.60;;;;;;;3.59;98.50;101710.63;5073139;28;20487;-67
2024/03/17 04:03:18;;;;;;;1.60;0.30;;;;;;;3.59;98.03;101702.59;5073068;28;20457;-67
2024/03/17 04:05:46;;;;;;;2.13;0.83;;;;;;;3.57;97.74;101707.34;5072833;28;20476;-67
2024/03/17 04:08:12;;;;;;;2.17;0.37;;;;;;;3.58;97.58;101713.50;5073061;28;20524;-68
2024/03/17 04:10:39;;;;;;;1.70;0.40;;;;;;;3.58;98.25;101713.50;5073034;28;20438;-68
2024/03/17 04:13:06;;;;;;;1.80;0.60;;;;;;;3.56;98.17;101718.28;5072613;28;20492;-68
2024/03/17 04:15:32;;;;;;;1.60;0.30;;;;;;;3.57;97.51;101720.72;5072944;28;20477;-67
2024/03/17 04:17:59;;;;;;;1.70;0.50;;;;;;;3.53;98.43;101704.28;5072973;28;20440;-67
2024/03/17 04:20:26;;;;;;;2.73;0.40;;;;;;;3.47;98.61;101707.88;5072946;28;20443;-67
2024/03/17 04:22:53;;;;;;;1.60;0.30;;;;;;;3.49;99.85;101702.28;5072882;28;20464;-67
2024/03/17 04:25:20;;;;;;;1.60;0.30;;;;;;;3.54;99.25;101703.28;5072587;28;20456;-67
2024/03/17 04:27:47;;;;;;;14.63;0.53;;;;;;;3.57;98.52;101699.31;5072935;28;20433;-67
2024/03/17 04:30:14;;;;;;;1.80;0.50;;;;;;;3.53;98.59;101700.81;5072612;28;20440;-67
2024/03/17 04:32:40;;;;;;;1.60;0.30;;;;;;;3.51;98.69;101705.59;5072477;28;20842;-67
2024/03/17 04:35:08;;;;;;;1.70;0.40;;;;;;;3.48;99.09;101711.38;5072376;28;21004;-67
2024/03/17 04:37:38;;;;;;;1.60;0.40;;;;;;;3.47;99.00;101707.06;5072833;28;20521;-67
2024/03/17 04:40:10;;;;;;;1.60;0.30;;;;;;;3.40;99.53;101715.19;5072951;28;20425;-67
2024/03/17 04:42:38;;;;;;;1.70;0.50;;;;;;;3.36;99.68;101713.19;5073017;28;20453;-68
2024/03/17 04:45:06;;;;;;;1.60;0.40;;;;;;;3.36;100.00;101705.97;5076114;28;20441;-67
2024/03/17 04:47:33;;;;;;;1.80;0.50;;;;;;;3.36;100.00;101715.84;5076305;28;20441;-67
2024/03/17 04:50:00;;;;;;;1.63;0.40;;;;;;;3.38;100.00;101716.47;5076000;28;20464;-67
2024/03/17 04:52:26;;;;;;;1.60;0.30;;;;;;;3.39;100.00;101720.75;5076132;28;20493;-67
2024/03/17 04:54:53;;;;;;;1.97;0.87;;;;;;;3.40;100.00;101722.41;5076124;28;20441;-67
2024/03/17 04:57:21;;;;;;;1.60;0.30;;;;;;;3.44;100.00;101727.06;5076147;28;20472;-67
2024/03/17 04:59:47;;;;;;;1.60;0.30;;;;;;;3.46;100.00;101725.00;5076117;28;20483;-67
2024/03/17 05:02:14;;;;;;;1.70;0.40;;;;;;;3.52;100.00;101723.28;5075969;28;20540;-67
2024/03/17 05:04:42;;;;;;;1.70;0.43;;;;;;;3.51;100.00;101732.38;5076087;28;20440;-68
2024/03/17 05:07:09;;;;;;;1.60;0.30;;;;;;;3.49;100.00;101729.88;5075995;28;20434;-67
2024/03/17 05:09:35;;;;;;;2.17;0.63;;;;;;;3.46;100.00;101734.91;5076020;28;20437;-67
2024/03/17 05:12:02;;;;;;;1.60;0.37;;;;;;;3.50;100.00;101731.56;5076150;28;20536;-67
2024/03/17 05:14:30;;;;;;;1.70;0.50;;;;;;;3.52;100.00;101731.31;5076177;28;20524;-67
2024/03/17 05:16:56;;;;;;;2.53;0.70;;;;;;;3.50;100.00;101728.88;5075854;28;20512;-68
2024/03/17 05:19:23;;;;;;;1.60;0.47;;;;;;;3.48;100.00;101725.59;5075707;28;20943;-68
2024/03/17 05:21:50;;;;;;;3.30;0.87;;;;;;;3.49;100.00;101729.06;5075761;28;20442;-68
2024/03/17 05:24:17;;;;;;;1.60;0.30;;;;;;;3.48;100.00;101728.25;5075595;28;20476;-68
2024/03/17 05:26:45;;;;;;;2.43;0.50;;;;;;;3.48;100.00;101738.16;5075249;28;20475;-68
2024/03/17 05:29:12;;;;;;;1.60;0.30;;;;;;;3.47;100.00;101736.53;5075073;28;20484;-68
2024/03/17 05:31:40;;;;;;;1.63;0.40;;;;;;;3.45;100.00;101739.44;5075434;28;20437;-68
2024/03/17 05:34:07;;;;;;;2.23;0.57;;;;;;;3.49;100.00;101745.97;5075358;28;20462;-69
2024/03/17 05:36:33;;;;;;;1.90;0.70;;;;;;;3.49;100.00;101750.50;5075299;28;20564;-67
2024/03/17 05:39:00;;;;;;;1.70;0.50;;;;;;;3.47;100.00;101748.06;5075453;28;20473;-67
2024/03/17 05:41:28;;;;;;;1.60;0.50;;;;;;;3.45;100.00;101749.31;5075199;28;20433;-67
2024/03/17 05:43:57;;;;;;;6.13;1.70;;;;;;;3.46;100.00;101749.13;5075466;28;20488;-67
2024/03/17 05:46:25;;;;;;;1.60;0.30;;;;;;;3.50;100.00;101749.50;5074833;28;20511;-67
2024/03/17 05:48:53;;;;;;;1.60;0.40;;;;;;;3.44;100.00;101747.69;5075113;28;20441;-67
2024/03/17 05:51:20;;;;;;;1.60;0.30;;;;;;;3.45;100.00;101749.31;5074740;28;20849;-67
2024/03/17 05:53:46;;;;;;;1.70;0.40;;;;;;;3.45;100.00;101760.88;5074978;28;20463;-67
2024/03/17 05:56:15;;;;;;;1.60;0.30;;;;;;;3.50;100.00;101752.16;5074109;28;20487;-67
2024/03/17 05:58:42;;;;;;;3.87;0.67;;;;;;;3.47;100.00;101757.97;5074640;28;20536;-67
2024/03/17 06:01:11;;;;;;;1.60;0.30;;;;;;;3.53;100.00;101755.19;5074877;28;20438;-67
2024/03/17 06:03:38;;;;;;;1.60;0.40;;;;;;;3.54;100.00;101769.38;5074386;28;20999;-67
2024/03/17 06:06:09;;;;;;;1.80;0.40;;;;;;;3.58;100.00;101767.09;5074710;28;20429;-67
2024/03/17 06:08:36;;;;;;;1.60;0.30;;;;;;;3.62;100.00;101770.97;5075436;28;20492;-67
2024/03/17 06:11:04;;;;;;;1.60;0.30;;;;;;;3.63;100.00;101767.22;5074701;28;20524;-67
2024/03/17 06:13:31;;;;;;;1.90;0.90;;;;;;;3.62;100.00;101774.44;5074655;28;20594;-67
2024/03/17 06:16:00;;;;;;;1.60;0.40;;;;;;;3.69;100.00;101777.06;5074325;28;20483;-67
2024/03/17 06:18:27;;;;;;;1.60;0.30;;;;;;;3.75;100.00;101776.97;5074523;28;20446;-67
2024/03/17 06:20:58;;;;;;;1.90;0.43;;;;;;;3.83;100.00;101772.34;5074569;28;20535;-67
2024/03/17 06:23:26;;;;;;;2.40;0.57;;;;;;;3.94;100.00;101774.25;5074121;28;20547;-67
2024/03/17 06:25:54;;;;;;;1.60;0.40;;;;;;;3.99;100.00;101774.41;5073966;28;20798;-68
2024/03/17 06:28:20;;;;;;;2.33;0.70;;;;;;;3.97;100.00;101785.31;5074356;28;20894;-68
2024/03/17 06:30:55;;;;;;;1.87;0.50;;;;;;;4.01;100.00;101788.38;5074290;28;20477;-67
2024/03/17 06:33:22;;;;;;;1.70;0.40;;;;;;;4.10;100.00;101784.34;5074200;28;20572;-67
2024/03/17 06:35:49;;;;;;;1.70;0.50;;;;;;;4.16;100.00;101793.31;5073797;28;20477;-67
2024/03/17 06:38:15;;;;;;;2.00;0.67;;;;;;;4.23;100.00;101794.06;5074144;28;20948;-67
2024/03/17 06:40:50;;;;;;;2.13;0.57;;;;;;;4.22;99.93;101797.78;5073673;28;20998;-68
2024/03/17 06:43:16;;;;;;;4.00;1.07;;;;;;;4.25;99.97;101795.47;5074015;28;20449;-68
2024/03/17 06:45:43;;;;;;;2.30;1.17;;;;;;;4.33;99.40;101798.84;5073930;28;20524;-68
2024/03/17 06:48:10;;;;;;;1.63;0.43;;;;;;;4.41;98.79;101801.22;5073739;28;20909;-68
2024/03/17 06:50:39;;;;;;;1.97;0.53;;;;;;;4.49;98.26;101809.75;5073850;28;20445;-68
2024/03/17 06:53:05;;;;;;;2.43;0.57;;;;;;;4.54;98.10;101809.88;5073798;28;20457;-68
2024/03/17 06:55:32;;;;;;;1.90;0.60;;;;;;;4.59;96.93;101806.50;5073811;28;20516;-68
2024/03/17 06:58:00;;;;;;;1.60;0.30;;;;;;;4.60;96.39;101816.16;5073548;28;20493;-68
2024/03/17 07:00:26;;;;;;;2.00;0.70;;;;;;;4.54;95.65;101828.66;5073804;28;20445;-68
2024/03/17 07:02:54;;;;;;;1.60;0.40;;;;;;;4.59;95.96;101819.09;5074265;28;20468;-68
2024/03/17 07:05:20;;;;;;;1.60;0.40;;;;;;;4.69;95.43;101833.59;5073708;28;20446;-68
2024/03/17 07:07:47;;;;;;;7.27;0.80;;;;;;;4.70;95.26;101832.53;5073678;28;20443;-68
2024/03/17 07:10:15;;;;;;;1.70;0.50;;;;;;;4.80;93.68;101831.97;5073272;28;20950;-68
2024/03/17 07:12:42;;;;;;;1.70;0.40;;;;;;;4.85;92.56;101839.31;5073146;28;20548;-68
2024/03/17 07:15:11;;;;;;;1.80;0.57;;;;;;;4.89;92.75;101845.88;5073559;28;20444;-67
2024/03/17 07:17:37;;;;;;;1.60;0.40;;;;;;;4.90;93.30;101842.13;5073235;28;20568;-67
2024/03/17 07:20:08;;;;;;;1.60;0.30;;;;;;;4.95;93.17;101835.00;5073141;28;20464;-67
2024/03/17 07:22:35;;;;;;;1.60;0.30;;;;;;;5.06;92.65;101844.94;5073074;28;20457;-67
2024/03/17 07:25:02;;;;;;;2.20;0.53;;;;;;;5.10;92.77;101848.00;5073007;28;20990;-67
2024/03/17 07:27:28;;;;;;;1.60;0.30;;;;;;;5.24;92.31;101852.06;5073194;28;20425;-67
2024/03/17 07:29:54;;;;;;;1.60;0.43;;;;;;;5.30;91.29;101853.81;5073489;28;20845;-68
2024/03/17 07:32:23;;;;;;;1.60;0.30;;;;;;;5.34;91.63;101856.03;5073332;28;20492;-67
2024/03/17 07:34:50;;;;;;;1.70;0.60;;;;;;;5.42;91.07;101856.50;5073421;28;20295;-67
2024/03/17 07:37:17;;;;;;;1.80;0.40;;;;;;;5.53;89.80;101860.22;5073281;28;20478;-67
2024/03/17 07:39:43;;;;;;;4.17;1.00;;;;;;;5.55;90.13;101869.69;5073373;28;20544;-67
2024/03/17 07:42:10;;;;;;;1.70;0.50;;;;;;;5.57;90.31;101864.88;5072911;28;20493;-67
2024/03/17 07:44:38;;;;;;;1.60;0.30;;;;;;;5.63;89.10;101862.34;5073327;28;20807;-68
2024/03/17 07:47:05;;;;;;;2.30;0.70;;;;;;;5.56;88.04;101865.94;5073232;28;20516;-67
2024/03/17 07:49:33;;;;;;;1.60;0.40;;;;;;;5.55;89.45;101860.81;5072902;28;20517;-67
2024/03/17 07:52:00;;;;;;;1.70;0.40;;;;;;;5.60;89.53;101860.09;5072898;28;20955;-67
2024/03/17 07:54:27;;;;;;;2.20;0.80;;;;;;;5.66;88.96;101865.34;5073285;28;20491;-68
2024/03/17 07:56:54;;;;;;;1.60;0.40;;;;;;;5.72;88.74;101866.28;5073194;28;20488;-68
2024/03/17 07:59:21;;;;;;;1.60;0.40;;;;;;;5.64;88.93;101867.47;5073292;28;20789;-67
2024/03/17 08:01:48;;;;;;;1.60;0.40;;;;;;;5.73;87.50;101868.72;5072994;28;20441;-68
2024/03/17 08:04:14;;;;;;;1.60;0.40;;;;;;;5.72;87.86;101871.66;5072808;28;20473;-67
2024/03/17 08:06:42;;;;;;;1.70;0.40;;;;;;;5.80;87.18;101872.13;5073014;28;20508;-67
2024/03/17 08:09:09;;;;;;;1.60;0.40;;;;;;;5.83;87.18;101868.94;5073156;28;20945;-68
2024/03/17 08:11:36;;;;;;;1.60;0.40;;;;;;;5.68;86.01;101882.06;5073046;28;20473;-68
2024/03/17 08:14:03;;;;;;;2.00;0.80;;;;;;;5.70;85.54;101877.25;5072959;28;20457;-69
2024/03/17 08:16:30;;;;;;;1.60;0.40;;;;;;;5.83;84.98;101871.63;5072671;28;21000;-69
2024/03/17 08:18:57;;;;;;;2.67;0.87;;;;;;;5.92;84.71;101873.97;5075649;28;20437;-69
2024/03/17 08:21:24;;;;;;;8.20;0.70;;;;;;;6.01;83.13;101869.84;5076849;28;20448;-69
2024/03/17 08:23:52;;;;;;;2.73;0.83;;;;;;;5.96;83.83;101872.44;5076389;28;20877;-69
2024/03/17 08:26:19;;;;;;;1.70;0.50;;;;;;;6.10;83.27;101865.72;5076438;28;20476;-69
2024/03/17 08:28:46;;;;;;;1.87;0.90;;;;;;;6.23;82.36;101872.72;5076762;28;20433;-69
2024/03/17 08:31:15;;;;;;;1.87;0.70;;;;;;;6.31;82.09;101870.44;5076590;28;20445;-69
2024/03/17 08:33:42;;;;;;;4.03;0.50;;;;;;;6.27;81.06;101863.91;5076263;28;20480;-69
2024/03/17 08:36:10;;;;;;;2.27;0.77;;;;;;;6.24;81.83;101856.34;5076586;28;20885;-69
2024/03/17 08:38:38;;;;;;;1.77;0.40;;;;;;;6.29;81.73;101855.63;5076319;28;20814;-70
2024/03/17 08:41:08;;;;;;;3.20;0.70;;;;;;;6.35;81.01;101854.66;5076455;28;20516;-69
2024/03/17 08:43:36;;;;;;;2.03;0.70;;;;;;;6.42;81.03;101860.72;5076604;28;20485;-69
2024/03/17 08:46:05;;;;;;;1.60;0.40;;;;;;;6.60;81.01;101858.84;5076011;28;20441;-69
2024/03/17 08:48:33;;;;;;;1.70;0.50;;;;;;;6.66;77.33;101866.78;5076300;28;20452;-70
2024/03/17 08:51:01;;;;;;;1.80;0.60;;;;;;;6.72;75.58;101865.78;5076376;28;20441;-69
2024/03/17 08:53:28;;;;;;;1.60;0.40;;;;;;;6.88;77.40;101857.97;5075939;28;20518;-69
2024/03/17 08:55:55;;;;;;;6.73;1.23;;;;;;;7.16;76.41;101863.25;5076205;28;20469;-69
2024/03/17 08:58:23;;;;;;;5.87;0.97;;;;;;;7.34;74.24;101873.75;5075827;28;20489;-67
2024/03/17 09:00:50;;;;;;;3.20;0.60;;;;;;;7.36;71.88;101876.22;5076121;28;20803;-66
2024/03/17 09:03:18;;;;;;;2.27;0.70;;;;;;;7.24;69.85;101879.00;5075979;28;20492;-69
2024/03/17 09:05:46;;;;;;;1.60;0.40;;;;;;;7.31;70.55;101873.47;5076075;28;20468;-69
2024/03/17 09:08:17;;;;;;;1.60;0.40;;;;;;;7.37;69.99;101860.88;5075738;28;20877;-69
2024/03/17 09:10:44;;;;;;;2.73;0.87;;;;;;;7.42;68.74;101871.72;5076215;28;20434;-69
2024/03/17 09:13:14;;;;;;;1.50;0.30;;;;;;;7.49;67.70;101873.19;5075790;28;20469;-70
2024/03/17 09:15:50;;;;;;;1.60;0.40;;;;;;;7.60;66.88;101868.75;5076223;28;20445;-69
2024/03/17 09:18:16;;;;;;;1.80;0.53;;;;;;;7.67;67.34;101872.09;5076264;28;20518;-69
2024/03/17 09:20:43;;;;;;;2.10;0.50;;;;;;;7.62;65.88;101877.41;5075563;28;20472;-69
2024/03/17 09:23:10;;;;;;;2.30;0.77;;;;;;;7.67;65.38;101877.47;5075654;28;20541;-69
2024/03/17 09:25:37;;;;;;;3.60;1.27;;;;;;;7.59;65.35;101865.22;5075407;28;20544;-69
2024/03/17 09:28:04;;;;;;;1.60;0.40;;;;;;;7.51;66.38;101867.53;5075630;28;20434;-69
2024/03/17 09:30:31;;;;;;;3.23;0.47;;;;;;;7.62;66.94;101869.31;5074224;28;20503;-69
2024/03/17 09:33:00;;;;;;;1.97;0.50;;;;;;;7.81;65.63;101869.81;5075236;28;20503;-69
2024/03/17 09:35:27;;;;;;;2.20;1.10;;;;;;;7.95;65.63;101872.97;5075154;28;20465;-69
2024/03/17 09:37:53;;;;;;;1.60;0.40;;;;;;;8.02;66.80;101877.09;5074898;28;20559;-69
2024/03/17 09:40:20;;;;;;;1.87;0.60;;;;;;;7.99;66.13;101884.88;5075283;28;20442;-69
2024/03/17 09:42:47;;;;;;;1.70;0.40;;;;;;;7.83;66.71;101879.31;5075195;28;20548;-69
2024/03/17 09:45:15;;;;;;;1.50;0.30;;;;;;;7.79;66.96;101866.56;5074919;28;20460;-69
2024/03/17 09:47:42;;;;;;;1.70;0.40;;;;;;;7.67;67.06;101874.78;5074928;28;20469;-69
2024/03/17 09:50:14;;;;;;;5.07;0.70;;;;;;;7.46;68.07;101870.16;5075151;28;20448;-69
2024/03/17 09:52:44;;;;;;;1.63;0.60;;;;;;;7.39;67.95;101872.22;5075178;28;20858;-69
2024/03/17 09:55:16;;;;;;;2.13;0.53;;;;;;;7.46;66.86;101873.69;5074725;28;20437;-69
2024/03/17 09:57:44;;;;;;;3.93;0.60;;;;;;;7.55;68.00;101874.88;5074737;28;20841;-69
2024/03/17 10:00:13;;;;;;;1.70;0.40;;;;;;;7.74;67.20;101871.88;5074995;28;20469;-69
2024/03/17 10:02:44;;;;;;;1.80;0.50;;;;;;;7.77;66.12;101863.31;5074958;28;20461;-69
2024/03/17 10:05:22;;;;;;;2.03;0.70;;;;;;;7.78;66.36;101871.13;5074944;28;20442;-69
2024/03/17 10:07:49;;;;;;;2.27;0.60;;;;;;;7.61;67.16;101864.16;5074921;28;20509;-69
2024/03/17 10:10:17;;;;;;;1.60;0.30;;;;;;;7.61;67.67;101862.28;5074427;28;20917;-69
2024/03/17 10:12:45;;;;;;;2.23;0.60;;;;;;;7.77;66.70;101860.59;5074377;28;21034;-69
2024/03/17 10:15:12;;;;;;;1.70;0.50;;;;;;;7.97;65.64;101860.88;5074707;28;20456;-70
2024/03/17 10:17:39;;;;;;;1.60;0.40;;;;;;;8.21;64.92;101861.41;5074533;28;20487;-69
2024/03/17 10:20:15;;;;;;;1.60;0.30;;;;;;;8.17;62.03;101872.94;5074598;28;20584;-69
2024/03/17 10:22:58;;;;;;;1.60;0.40;;;;;;;7.91;61.91;101878.03;5074238;28;20461;-69
2024/03/17 10:25:25;;;;;;;1.70;0.40;;;;;;;7.94;63.20;101866.75;5074150;28;20829;-69
2024/03/17 10:27:53;;;;;;;2.17;0.57;;;;;;;8.16;64.31;101865.94;5074425;28;20460;-69
2024/03/17 10:30:21;;;;;;;2.17;0.60;;;;;;;8.44;64.23;101867.59;5074080;28;20444;-68
2024/03/17 10:32:53;;;;;;;5.83;0.53;;;;;;;8.52;64.35;101859.03;5074266;28;20511;-71
2024/03/17 10:35:32;;;;;;;2.20;0.50;;;;;;;8.54;63.65;101868.53;5074067;28;20886;-69
2024/03/17 10:38:04;;;;;;;6.67;0.57;;;;;;;8.23;61.51;101875.44;5074369;28;20566;-69
2024/03/17 10:40:32;;;;;;;1.83;0.57;;;;;;;8.09;63.25;101871.50;5073851;28;20430;-69
2024/03/17 10:43:01;;;;;;;1.60;0.47;;;;;;;8.09;63.38;101875.00;5074233;28;20477;-69
2024/03/17 10:45:30;;;;;;;1.80;0.40;;;;;;;8.34;62.70;101877.19;5074931;28;20904;-70
2024/03/17 10:48:01;;;;;;;1.60;0.40;;;;;;;8.58;60.89;101872.31;5074067;28;20444;-69
2024/03/17 10:50:31;;;;;;;2.03;0.60;;;;;;;8.96;62.52;101877.78;5074079;28;20504;-69
2024/03/17 10:53:08;;;;;;;1.90;0.50;;;;;;;9.27;57.67;101873.44;5074058;28;20445;-70
2024/03/17 10:55:43;;;;;;;4.00;0.50;;;;;;;9.33;57.42;101865.06;5074417;28;20780;-70
2024/03/17 10:58:24;;;;;;;1.80;0.40;;;;;;;9.42;60.23;101870.00;5073946;28;20534;-69
2024/03/17 11:00:51;;;;;;;1.73;0.57;;;;;;;9.58;57.54;101871.72;5073705;28;20421;-70
2024/03/17 11:03:20;;;;;;;3.20;0.90;;;;;;;9.78;55.18;101882.66;5073848;28;20540;-70
2024/03/17 11:05:49;;;;;;;2.37;0.50;;;;;;;9.87;56.22;101880.22;5074123;28;20813;-69
2024/03/17 11:08:19;;;;;;;1.87;0.50;;;;;;;10.14;56.06;101882.78;5073992;28;20442;-69
2024/03/17 11:10:52;;;;;;;1.83;0.60;;;;;;;10.24;55.55;101880.13;5073696;28;20544;-70
2024/03/17 11:13:27;;;;;;;4.00;0.87;;;;;;;10.31;55.72;101874.47;5073404;28;20972;-72
2024/03/17 11:15:55;;;;;;;3.77;1.00;;;;;;;10.08;55.37;101870.31;5073818;28;20484;-69
2024/03/17 11:18:38;;;;;;;2.77;0.70;;;;;;;9.61;55.75;101865.78;5073589;28;20485;-69
2024/03/17 11:21:20;;;;;;;2.33;0.60;;;;;;;9.44;57.46;101873.28;5073535;28;20469;-69
2024/03/17 11:24:01;;;;;;;1.70;0.40;;;;;;;9.40;58.20;101877.56;5073788;28;20544;-69
2024/03/17 11:26:32;;;;;;;2.50;0.80;;;;;;;9.07;58.43;101869.53;5073338;28;20543;-69
2024/03/17 11:28:58;;;;;;;4.40;0.60;;;;;;;9.19;59.25;101871.19;5073604;28;20520;-69
2024/03/17 11:31:42;;;;;;;4.43;0.50;;;;;;;10.04;56.60;101869.22;5074302;28;20437;-70
2024/03/17 11:34:32;;;;;;;1.80;0.40;;;;;;;10.97;53.23;101874.53;5073502;28;20461;-70